KBTA

Details ICAO KBTA
Name Blair Municipal
Region United States
Timezone America/Chicago (UTC-6.0)
Plans Departing 2
Arriving 0
Stats Elevation 1,325 ft / 404 m (AMSL)
Location 41.418751° -96.111740°
Runways 1
Magnetic Variation 2.674° E
Sunrise 2017-12-11 13:42:12 UTC / 2017-12-11 07:42:12 Local
Sunset 2017-12-11 22:56:21 UTC / 2017-12-11 16:56:21 Local
Advertisement - Login to hide

Runways

ID Width Length Bearing (true) Bearing (mag) Surface Threshold Offset Overrun Length
13 98 ft / 30 m 4,205 ft / 1,282 m 137.30° 134.63° Concrete 354 ft / 108 m 0 ft / 0 m
31 98 ft / 30 m 4,205 ft / 1,282 m 317.30° 314.63° Concrete 0 ft / 0 m 0 ft / 0 m

Map

Weather


0- 5 10 15 20 25 30 35+ Temperature / ° C

Clouds and Precipitation
Forecast for 2017-12-11 18:00 UTC. Updated 2 hours ago

Ground ~20,000 ft ~40,000 ft Winds

METAR

KBTA 111515Z AUTO 31020G27KT 10SM CLR 08/M03 A2994 RMK AO2 T00771026

TAF

Not found

Frequencies

Recorded 120.22 MHz AWOS 3
Unicom 122.90 MHz CTAF
Warning: Do not use this data for real-world aviation or navigation. No guarantee of current accuracy is given.